createdAt,value
2019-03-06T00:00:48.406Z,90.70
2019-03-06T00:03:56.491Z,90.65
2019-03-06T00:07:03.284Z,90.61
2019-03-06T00:10:23.958Z,90.85
2019-03-06T00:13:30.654Z,90.75
2019-03-06T00:16:57.737Z,90.74
2019-03-06T00:20:04.292Z,91.03
2019-03-06T00:23:11.032Z,90.92
2019-03-06T00:26:17.497Z,90.71
2019-03-06T00:29:24.502Z,90.28
2019-03-06T00:32:30.893Z,90.26
2019-03-06T00:35:44.149Z,90.47
2019-03-06T00:38:50.622Z,90.76
2019-03-06T00:42:00.075Z,90.85
2019-03-06T00:45:07.502Z,90.91
2019-03-06T00:48:14.179Z,91.06
2019-03-06T00:51:21.413Z,91.22
2019-03-06T00:54:27.895Z,91.49
2019-03-06T00:57:34.191Z,91.70
2019-03-06T01:00:41.041Z,91.86
2019-03-06T01:03:47.666Z,91.95
2019-03-06T01:06:53.858Z,92.03
2019-03-06T01:10:00.413Z,92.14
2019-03-06T01:13:07.432Z,92.15
2019-03-06T01:16:14.521Z,91.96
2019-03-06T01:19:21.536Z,91.90
2019-03-06T01:22:28.402Z,91.63
2019-03-06T01:25:35.001Z,91.46
2019-03-06T01:28:41.271Z,92.31
2019-03-06T01:31:47.917Z,92.56
2019-03-06T01:35:16.249Z,92.14
2019-03-06T01:38:40.545Z,92.24
2019-03-06T01:41:54.943Z,92.02
2019-03-06T01:45:04.309Z,92.07
2019-03-06T01:48:11.359Z,92.12
2019-03-06T01:51:17.902Z,92.12
2019-03-06T01:54:24.817Z,92.49
2019-03-06T01:57:31.453Z,92.40
2019-03-06T02:00:38.828Z,92.49
2019-03-06T02:03:45.455Z,92.77
2019-03-06T02:06:52.010Z,92.86
2019-03-06T02:09:58.581Z,92.79
2019-03-06T02:13:05.565Z,92.74
2019-03-06T02:16:12.304Z,92.75
2019-03-06T02:19:19.056Z,92.71
2019-03-06T02:22:25.956Z,92.88
2019-03-06T02:25:32.595Z,92.97
2019-03-06T02:28:39.560Z,92.89
2019-03-06T02:31:47.019Z,92.56
2019-03-06T02:34:53.623Z,92.75
2019-03-06T02:38:01.260Z,92.65
2019-03-06T02:41:08.074Z,92.70
2019-03-06T02:44:14.975Z,92.40
2019-03-06T02:47:21.565Z,92.46
2019-03-06T02:50:27.793Z,92.86
2019-03-06T02:53:34.263Z,93.03
2019-03-06T02:56:40.864Z,92.96
2019-03-06T03:00:01.523Z,93.01
2019-03-06T03:03:15.534Z,93.17
2019-03-06T03:06:28.539Z,93.15
2019-03-06T03:09:35.353Z,93.15
2019-03-06T03:12:42.721Z,93.27
2019-03-06T03:15:51.229Z,93.22
2019-03-06T03:18:57.991Z,93.28
2019-03-06T03:22:04.449Z,93.32
2019-03-06T03:25:11.094Z,93.38
2019-03-06T03:28:19.801Z,93.47
2019-03-06T03:31:26.693Z,93.47
2019-03-06T03:34:33.238Z,93.56
2019-03-06T03:37:39.946Z,93.56
2019-03-06T03:40:46.527Z,93.46
2019-03-06T03:43:52.734Z,93.36
2019-03-06T03:46:59.424Z,93.30
2019-03-06T03:50:06.044Z,93.24
2019-03-06T03:53:12.565Z,93.13
2019-03-06T03:56:18.964Z,93.01
2019-03-06T03:59:25.445Z,93.02
2019-03-06T04:02:32.248Z,93.00
2019-03-06T04:05:38.647Z,93.03
2019-03-06T04:08:45.555Z,92.95
2019-03-06T04:11:52.571Z,92.90
2019-03-06T04:14:59.504Z,92.96
2019-03-06T04:18:06.105Z,93.03
2019-03-06T04:21:12.575Z,93.59
2019-03-06T04:24:19.461Z,93.27
2019-03-06T04:27:25.697Z,93.00
2019-03-06T04:30:31.942Z,92.57
2019-03-06T04:33:38.669Z,92.04
2019-03-06T04:36:45.209Z,92.22
2019-03-06T04:39:52.498Z,92.43
2019-03-06T04:42:59.006Z,92.86
2019-03-06T04:46:05.707Z,93.23
2019-03-06T04:49:12.121Z,93.17
2019-03-06T04:52:18.774Z,93.09
2019-03-06T04:55:25.128Z,92.91
2019-03-06T04:58:31.840Z,92.83
2019-03-06T05:01:39.003Z,93.05
2019-03-06T05:04:45.941Z,93.35
2019-03-06T05:07:52.399Z,93.26
2019-03-06T05:10:59.024Z,93.25
2019-03-06T05:14:05.602Z,93.17
2019-03-06T05:17:24.827Z,93.33
2019-03-06T05:20:31.757Z,93.45
2019-03-06T05:23:39.648Z,93.26
2019-03-06T05:26:46.084Z,93.22
2019-03-06T05:29:53.019Z,93.27
2019-03-06T05:33:00.996Z,93.30
2019-03-06T05:36:48.252Z,93.41
2019-03-06T05:39:54.823Z,93.45
2019-03-06T05:43:02.210Z,93.27
2019-03-06T05:46:09.560Z,93.63
2019-03-06T05:49:16.918Z,93.82
2019-03-06T05:52:24.123Z,94.07
2019-03-06T05:55:30.659Z,94.02
2019-03-06T05:58:37.438Z,93.89
2019-03-06T06:01:45.520Z,93.83
2019-03-06T06:04:52.199Z,93.73
2019-03-06T06:07:58.788Z,93.73
2019-03-06T06:11:05.337Z,93.74
2019-03-06T06:14:11.736Z,93.78
2019-03-06T06:17:18.279Z,93.65
2019-03-06T06:20:24.890Z,93.65
2019-03-06T06:23:44.595Z,93.71
2019-03-06T06:26:51.053Z,93.86
2019-03-06T06:29:57.839Z,93.74
2019-03-06T06:33:04.460Z,93.44
2019-03-06T06:36:11.089Z,93.32
2019-03-06T06:39:17.263Z,93.23
2019-03-06T06:42:24.090Z,93.36
2019-03-06T06:45:31.606Z,93.57
2019-03-06T06:48:38.731Z,93.80
2019-03-06T06:52:19.131Z,92.95
2019-03-06T06:56:24.822Z,92.35
2019-03-06T07:00:02.215Z,91.57
2019-03-06T07:03:43.316Z,90.53
2019-03-06T07:07:11.085Z,90.27
2019-03-06T07:10:37.042Z,89.91
2019-03-06T07:14:03.254Z,88.87
2019-03-06T07:17:15.772Z,88.82
2019-03-06T07:20:40.868Z,88.42
2019-03-06T07:23:56.660Z,87.39
2019-03-06T07:27:18.608Z,87.25
2019-03-06T07:30:39.561Z,87.00
2019-03-06T07:34:08.311Z,86.94
2019-03-06T07:37:36.708Z,87.11
2019-03-06T07:41:14.488Z,86.54
2019-03-06T07:44:38.708Z,85.63
2019-03-06T07:48:22.830Z,85.13
2019-03-06T07:51:47.964Z,84.99
2019-03-06T07:55:12.160Z,85.00
2019-03-06T07:58:56.117Z,85.18
2019-03-06T08:02:06.787Z,84.49
2019-03-06T08:05:14.345Z,84.62
2019-03-06T08:08:20.675Z,84.61
2019-03-06T08:11:46.498Z,84.50
2019-03-06T08:15:05.374Z,84.66
2019-03-06T08:18:25.644Z,83.66
2019-03-06T08:21:48.760Z,83.68
2019-03-06T08:25:21.573Z,82.62
2019-03-06T08:28:28.594Z,82.85
2019-03-06T08:31:41.668Z,81.75
2019-03-06T08:34:48.957Z,82.56
2019-03-06T08:37:55.741Z,81.89
2019-03-06T08:41:04.888Z,81.48
2019-03-06T08:44:12.043Z,80.85
2019-03-06T08:47:36.243Z,81.23
2019-03-06T08:50:52.676Z,81.49
2019-03-06T08:54:06.908Z,80.55
2019-03-06T08:57:39.363Z,80.88
2019-03-06T09:01:03.793Z,79.43
2019-03-06T09:04:27.950Z,79.41
2019-03-06T09:07:55.954Z,78.69
2019-03-06T09:11:20.906Z,77.55
2019-03-06T09:14:35.546Z,78.24
2019-03-06T09:18:19.607Z,77.34
2019-03-06T09:21:45.457Z,76.60
2019-03-06T09:25:06.898Z,75.95
2019-03-06T09:28:32.276Z,75.81
2019-03-06T09:32:10.809Z,76.55
2019-03-06T09:35:36.166Z,76.18
2019-03-06T09:38:49.046Z,76.80
2019-03-06T09:42:11.747Z,76.51
2019-03-06T09:45:36.475Z,76.67
2019-03-06T09:49:11.557Z,77.60
2019-03-06T09:52:38.456Z,76.90
2019-03-06T09:56:05.211Z,77.02
2019-03-06T09:59:22.096Z,78.02
2019-03-06T10:02:56.985Z,77.77
2019-03-06T10:06:38.740Z,77.18
2019-03-06T10:10:02.700Z,76.32
2019-03-06T10:13:32.421Z,76.75
2019-03-06T10:17:16.278Z,77.54
2019-03-06T10:20:25.412Z,77.11
2019-03-06T10:23:32.733Z,75.87
2019-03-06T10:26:39.516Z,76.02
2019-03-06T10:29:46.527Z,76.03
2019-03-06T10:32:53.402Z,75.91
2019-03-06T10:36:00.542Z,74.95
2019-03-06T10:39:08.975Z,74.25
2019-03-06T10:42:15.779Z,74.87
2019-03-06T10:45:23.165Z,75.22
2019-03-06T10:48:30.709Z,74.51
2019-03-06T10:51:38.807Z,74.72
2019-03-06T10:54:45.501Z,74.28
2019-03-06T10:57:52.661Z,74.75
2019-03-06T11:00:59.230Z,74.73
2019-03-06T11:04:23.717Z,74.38
2019-03-06T11:07:30.383Z,74.78
2019-03-06T11:10:37.268Z,73.19
2019-03-06T11:13:44.395Z,73.44
2019-03-06T11:16:52.012Z,73.61
2019-03-06T11:19:59.148Z,73.19
2019-03-06T11:23:07.571Z,73.62
2019-03-06T11:26:14.243Z,73.63
2019-03-06T11:29:20.857Z,75.24
2019-03-06T11:32:27.562Z,74.26
2019-03-06T11:35:34.353Z,73.27
2019-03-06T11:38:41.219Z,73.16
2019-03-06T11:41:48.097Z,73.18
2019-03-06T11:44:54.691Z,74.42
2019-03-06T11:48:02.500Z,74.35
2019-03-06T11:51:10.016Z,73.29
2019-03-06T11:54:17.230Z,72.14
2019-03-06T11:57:24.235Z,73.28
2019-03-06T12:00:37.488Z,73.32
2019-03-06T12:03:44.281Z,73.19
2019-03-06T12:06:51.035Z,72.56
2019-03-06T12:09:57.760Z,72.36
2019-03-06T12:13:09.613Z,71.18
2019-03-06T12:16:19.316Z,71.32
2019-03-06T12:19:26.202Z,71.85
2019-03-06T12:22:33.158Z,72.43
2019-03-06T12:25:41.107Z,71.83
2019-03-06T12:28:48.230Z,70.94
2019-03-06T12:31:54.833Z,71.42
2019-03-06T12:35:03.720Z,71.69
2019-03-06T12:38:11.313Z,71.63
2019-03-06T12:41:18.823Z,71.30
2019-03-06T12:44:26.242Z,70.25
2019-03-06T12:47:33.353Z,71.35
2019-03-06T12:50:40.293Z,71.77
2019-03-06T12:53:47.103Z,71.83
2019-03-06T12:56:53.598Z,72.70
2019-03-06T13:00:00.744Z,71.74
2019-03-06T13:03:07.445Z,70.30
2019-03-06T13:06:23.911Z,70.25
2019-03-06T13:09:22.223Z,70.83
2019-03-06T13:12:32.346Z,72.08
2019-03-06T13:15:39.472Z,72.34
2019-03-06T13:18:46.448Z,71.22
2019-03-06T13:21:53.069Z,71.42
2019-03-06T13:24:59.701Z,70.20
2019-03-06T13:28:06.313Z,70.16
2019-03-06T13:31:13.337Z,70.11
2019-03-06T13:34:32.973Z,69.70
2019-03-06T13:37:41.068Z,69.06
2019-03-06T13:40:48.401Z,68.83
2019-03-06T13:43:54.927Z,67.96
2019-03-06T13:47:02.126Z,67.46
2019-03-06T13:50:08.778Z,68.14
2019-03-06T13:53:20.278Z,65.88
2019-03-06T13:56:23.871Z,66.65
2019-03-06T13:59:30.831Z,67.31
2019-03-06T14:02:37.326Z,67.59
2019-03-06T14:05:44.439Z,67.67
2019-03-06T14:08:51.463Z,68.06
2019-03-06T14:11:59.664Z,67.71
2019-03-06T14:15:07.242Z,68.90
2019-03-06T14:18:14.708Z,67.44
2019-03-06T14:21:23.231Z,68.69
2019-03-06T14:24:30.208Z,68.60
2019-03-06T14:27:36.578Z,68.09
2019-03-06T14:30:44.655Z,68.61
2019-03-06T14:33:52.348Z,68.26
2019-03-06T14:36:59.065Z,68.49
2019-03-06T14:40:09.954Z,67.77
2019-03-06T14:43:16.334Z,68.26
2019-03-06T14:46:23.096Z,67.78
2019-03-06T14:49:30.483Z,68.87
2019-03-06T14:52:36.878Z,69.61
2019-03-06T14:55:43.831Z,68.94
2019-03-06T14:58:50.537Z,69.00
2019-03-06T15:01:57.659Z,68.60
2019-03-06T15:05:04.746Z,68.31
2019-03-06T15:08:11.670Z,68.60
2019-03-06T15:11:18.599Z,66.46
2019-03-06T15:14:25.350Z,68.00
2019-03-06T15:17:31.697Z,68.18
2019-03-06T15:20:38.681Z,68.52
2019-03-06T15:23:45.185Z,68.30
2019-03-06T15:26:51.728Z,67.44
2019-03-06T15:29:58.579Z,67.71
2019-03-06T15:33:05.627Z,66.47
2019-03-06T15:36:12.766Z,67.62
2019-03-06T15:39:31.943Z,66.96
2019-03-06T15:42:39.068Z,66.72
2019-03-06T15:45:46.971Z,66.58
2019-03-06T15:48:54.050Z,65.72
2019-03-06T15:52:00.660Z,66.42
2019-03-06T15:55:09.645Z,65.34
2019-03-06T15:58:17.119Z,65.40
2019-03-06T16:01:25.301Z,64.49
2019-03-06T16:04:35.852Z,62.95
2019-03-06T16:07:42.960Z,63.67
2019-03-06T16:10:51.530Z,63.34
2019-03-06T16:14:00.720Z,62.25
2019-03-06T16:17:12.855Z,62.31
2019-03-06T16:20:20.022Z,63.20
2019-03-06T16:23:27.702Z,61.27
2019-03-06T16:26:36.990Z,61.74
2019-03-06T16:29:44.203Z,61.56
2019-03-06T16:32:51.624Z,63.99
2019-03-06T16:35:58.902Z,63.08
2019-03-06T16:39:07.890Z,62.85
2019-03-06T16:42:15.764Z,61.79
2019-03-06T16:45:24.905Z,63.00
2019-03-06T16:48:31.980Z,63.40
2019-03-06T16:51:41.564Z,64.16
2019-03-06T16:54:50.441Z,64.08
2019-03-06T16:57:58.619Z,64.67
2019-03-06T17:01:06.544Z,64.36
2019-03-06T17:04:13.046Z,64.70
2019-03-06T17:07:20.419Z,63.93
2019-03-06T17:10:29.021Z,64.05
2019-03-06T17:13:35.524Z,64.75
2019-03-06T17:16:42.688Z,65.14
2019-03-06T17:19:50.874Z,65.34
2019-03-06T17:22:57.654Z,65.59
2019-03-06T17:26:04.377Z,64.97
2019-03-06T17:29:13.613Z,65.63
2019-03-06T17:32:20.557Z,65.10
2019-03-06T17:35:28.961Z,66.07
2019-03-06T17:38:37.052Z,65.17
2019-03-06T17:41:44.969Z,65.27
2019-03-06T17:44:51.691Z,65.54
2019-03-06T17:47:58.906Z,66.47
2019-03-06T17:51:10.288Z,66.03
2019-03-06T17:54:17.403Z,65.63
2019-03-06T17:57:24.178Z,65.41
2019-03-06T18:00:39.082Z,64.98
2019-03-06T18:04:12.386Z,65.07
2019-03-06T18:07:19.230Z,64.74
2019-03-06T18:10:26.874Z,64.28
2019-03-06T18:13:35.297Z,64.64
2019-03-06T18:16:42.685Z,64.00
2019-03-06T18:19:49.577Z,64.03
2019-03-06T18:22:56.463Z,64.31
2019-03-06T18:26:05.918Z,64.89
2019-03-06T18:29:12.924Z,64.44
2019-03-06T18:32:19.615Z,64.79
2019-03-06T18:35:26.314Z,64.67
2019-03-06T18:38:36.250Z,64.86
2019-03-06T18:41:44.011Z,65.39
2019-03-06T18:44:51.084Z,65.63
2019-03-06T18:47:58.309Z,65.87
2019-03-06T18:51:05.046Z,65.89
2019-03-06T18:54:12.102Z,66.07
2019-03-06T18:57:18.700Z,66.09
2019-03-06T19:00:25.711Z,66.23
2019-03-06T19:03:32.937Z,66.71
2019-03-06T19:06:41.420Z,66.33
2019-03-06T19:09:48.445Z,66.74
2019-03-06T19:12:55.589Z,65.98
2019-03-06T19:16:05.879Z,66.72
2019-03-06T19:19:15.298Z,66.97
2019-03-06T19:22:21.942Z,66.83
2019-03-06T19:25:28.768Z,66.93
2019-03-06T19:28:35.626Z,67.10
2019-03-06T19:31:43.577Z,67.12
2019-03-06T19:34:50.717Z,66.89
2019-03-06T19:37:58.259Z,66.88
2019-03-06T19:41:05.294Z,67.05
2019-03-06T19:44:11.971Z,67.41
2019-03-06T19:47:18.853Z,66.82
2019-03-06T19:50:26.284Z,66.85
2019-03-06T19:53:33.357Z,66.39
2019-03-06T19:56:40.319Z,66.69
2019-03-06T19:59:49.311Z,67.10
2019-03-06T20:02:56.195Z,68.36
2019-03-06T20:06:06.026Z,67.49
2019-03-06T20:09:31.599Z,67.05
2019-03-06T20:12:38.908Z,68.24
2019-03-06T20:15:48.444Z,68.01
2019-03-06T20:18:55.391Z,68.72
2019-03-06T20:22:10.743Z,68.42
2019-03-06T20:25:18.785Z,69.07
2019-03-06T20:28:26.189Z,68.98
2019-03-06T20:31:37.381Z,69.29
2019-03-06T20:34:43.912Z,69.33
2019-03-06T20:37:50.886Z,68.95
2019-03-06T20:40:57.911Z,68.68
2019-03-06T20:44:04.901Z,68.92
2019-03-06T20:47:12.441Z,68.94
2019-03-06T20:50:21.362Z,68.63
2019-03-06T20:53:29.568Z,69.41
2019-03-06T20:56:40.472Z,69.65
2019-03-06T20:59:48.241Z,69.56
2019-03-06T21:02:56.436Z,69.74
2019-03-06T21:06:04.041Z,70.01
2019-03-06T21:09:11.426Z,69.81
2019-03-06T21:12:19.820Z,70.45
2019-03-06T21:15:27.289Z,70.55
2019-03-06T21:18:34.219Z,70.77
2019-03-06T21:21:42.594Z,69.99
2019-03-06T21:24:49.169Z,70.55
2019-03-06T21:27:56.319Z,70.68
2019-03-06T21:31:04.246Z,70.52
2019-03-06T21:34:11.051Z,70.96
2019-03-06T21:37:18.531Z,71.13
2019-03-06T21:40:26.391Z,70.13
2019-03-06T21:43:36.681Z,70.19
2019-03-06T21:46:44.969Z,70.46
2019-03-06T21:49:53.273Z,70.30
2019-03-06T21:53:01.475Z,69.35
2019-03-06T21:56:08.879Z,69.83
2019-03-06T21:59:15.644Z,70.19
2019-03-06T22:02:23.585Z,70.50
2019-03-06T22:05:31.906Z,71.24
2019-03-06T22:08:39.481Z,71.29
2019-03-06T22:11:48.815Z,71.82
2019-03-06T22:14:55.935Z,73.12
2019-03-06T22:18:04.570Z,73.52
2019-03-06T22:21:14.967Z,73.58
2019-03-06T22:24:21.917Z,73.65
2019-03-06T22:27:29.305Z,73.96
2019-03-06T22:30:36.657Z,71.91
2019-03-06T22:33:43.519Z,73.60
2019-03-06T22:36:50.223Z,72.88
2019-03-06T22:39:57.200Z,72.87
2019-03-06T22:43:04.259Z,72.05
2019-03-06T22:46:10.719Z,70.30
2019-03-06T22:49:17.021Z,70.12
2019-03-06T22:52:23.960Z,69.75
2019-03-06T22:55:31.460Z,70.00
2019-03-06T22:58:38.970Z,70.50
2019-03-06T23:01:47.535Z,70.30
2019-03-06T23:04:54.397Z,70.17
2019-03-06T23:08:00.833Z,69.55
2019-03-06T23:11:07.914Z,68.69
2019-03-06T23:14:15.719Z,68.86
2019-03-06T23:17:23.096Z,67.94
2019-03-06T23:20:29.908Z,68.37
2019-03-06T23:23:36.605Z,67.71
2019-03-06T23:26:43.695Z,67.54
2019-03-06T23:29:50.363Z,67.95
2019-03-06T23:32:57.620Z,67.58
2019-03-06T23:36:04.433Z,67.45
2019-03-06T23:39:14.015Z,67.14
2019-03-06T23:42:20.737Z,66.94
2019-03-06T23:45:27.367Z,67.19
2019-03-06T23:48:33.969Z,68.11
2019-03-06T23:52:00.770Z,66.75
2019-03-06T23:55:08.325Z,67.08
2019-03-06T23:58:15.045Z,67.35
